createdAt,value
2019-04-01T00:02:24.388Z,78.73
2019-04-01T00:04:58.105Z,79.14
2019-04-01T00:07:31.842Z,79.54
2019-04-01T00:10:06.652Z,79.50
2019-04-01T00:12:40.401Z,79.23
2019-04-01T00:15:14.270Z,79.29
2019-04-01T00:17:48.253Z,78.83
2019-04-01T00:20:21.965Z,79.57
2019-04-01T00:22:56.082Z,79.61
2019-04-01T00:25:30.192Z,79.08
2019-04-01T00:28:03.934Z,78.88
2019-04-01T00:30:37.651Z,78.87
2019-04-01T00:33:11.410Z,79.12
2019-04-01T00:35:45.141Z,79.57
2019-04-01T00:38:19.145Z,79.16
2019-04-01T00:40:53.286Z,79.31
2019-04-01T00:43:57.960Z,79.93
2019-04-01T00:46:32.918Z,79.69
2019-04-01T00:49:06.759Z,79.38
2019-04-01T00:51:40.856Z,79.88
2019-04-01T00:54:14.606Z,79.57
2019-04-01T00:56:48.325Z,79.99
2019-04-01T00:59:22.318Z,79.75
2019-04-01T01:01:56.030Z,79.34
2019-04-01T01:04:29.766Z,79.38
2019-04-01T01:07:03.569Z,79.48
2019-04-01T01:09:37.637Z,79.58
2019-04-01T01:12:11.357Z,79.37
2019-04-01T01:14:45.090Z,79.24
2019-04-01T01:17:18.818Z,79.58
2019-04-01T01:19:52.644Z,79.14
2019-04-01T01:22:26.367Z,79.65
2019-04-01T01:25:00.345Z,79.36
2019-04-01T01:27:34.198Z,78.63
2019-04-01T01:30:08.483Z,79.25
2019-04-01T01:32:42.209Z,78.61
2019-04-01T01:35:15.950Z,79.11
2019-04-01T01:37:49.720Z,79.07
2019-04-01T01:40:23.448Z,79.41
2019-04-01T01:42:57.169Z,79.20
2019-04-01T01:45:30.921Z,78.19
2019-04-01T01:48:04.650Z,79.03
2019-04-01T01:50:38.421Z,78.67
2019-04-01T01:53:12.149Z,78.86
2019-04-01T01:55:46.181Z,78.48
2019-04-01T01:58:19.904Z,78.16
2019-04-01T02:00:55.668Z,78.38
2019-04-01T02:03:29.390Z,78.89
2019-04-01T02:06:03.203Z,78.75
2019-04-01T02:08:36.994Z,78.32
2019-04-01T02:11:10.733Z,78.76
2019-04-01T02:13:44.449Z,78.40
2019-04-01T02:16:18.376Z,78.46
2019-04-01T02:18:52.099Z,78.30
2019-04-01T02:21:25.841Z,78.30
2019-04-01T02:23:59.563Z,78.43
2019-04-01T02:26:33.340Z,78.95
2019-04-01T02:29:07.357Z,78.90
2019-04-01T02:31:41.504Z,78.31
2019-04-01T02:34:15.228Z,78.56
2019-04-01T02:36:48.959Z,78.90
2019-04-01T02:39:23.000Z,78.61
2019-04-01T02:41:56.747Z,79.21
2019-04-01T02:44:30.462Z,79.01
2019-04-01T02:47:04.370Z,79.27
2019-04-01T02:49:38.446Z,79.31
2019-04-01T02:52:12.854Z,80.09
2019-04-01T02:54:46.553Z,79.77
2019-04-01T02:57:20.574Z,79.30
2019-04-01T02:59:54.267Z,79.56
2019-04-01T03:02:28.259Z,80.04
2019-04-01T03:05:01.968Z,79.85
2019-04-01T03:07:35.669Z,80.49
2019-04-01T03:10:09.521Z,80.40
2019-04-01T03:12:43.471Z,80.29
2019-04-01T03:15:17.255Z,80.76
2019-04-01T03:17:51.178Z,80.58
2019-04-01T03:20:25.208Z,80.49
2019-04-01T03:22:59.001Z,80.31
2019-04-01T03:25:32.816Z,80.14
2019-04-01T03:28:06.532Z,80.30
2019-04-01T03:30:40.242Z,80.28
2019-04-01T03:33:14.093Z,80.18
2019-04-01T03:35:47.843Z,80.68
2019-04-01T03:38:21.561Z,80.45
2019-04-01T03:40:55.287Z,80.25
2019-04-01T03:43:29.003Z,79.91
2019-04-01T03:46:02.711Z,80.27
2019-04-01T03:48:36.434Z,80.28
2019-04-01T03:51:10.138Z,80.18
2019-04-01T03:53:43.880Z,80.44
2019-04-01T03:56:17.611Z,80.37
2019-04-01T03:58:51.334Z,80.71
2019-04-01T04:01:29.986Z,80.90
2019-04-01T04:04:01.177Z,80.89
2019-04-01T04:06:36.630Z,81.27
2019-04-01T04:09:10.542Z,81.06
2019-04-01T04:11:44.360Z,81.63
2019-04-01T04:14:18.329Z,81.81
2019-04-01T04:16:52.036Z,81.88
2019-04-01T04:19:26.340Z,81.29
2019-04-01T04:22:00.061Z,81.66
2019-04-01T04:24:33.771Z,81.51
2019-04-01T04:27:11.159Z,82.21
2019-04-01T04:29:42.923Z,81.59
2019-04-01T04:32:16.625Z,81.76
2019-04-01T04:34:50.349Z,82.15
2019-04-01T04:37:24.393Z,81.92
2019-04-01T04:39:58.122Z,82.13
2019-04-01T04:42:31.896Z,82.39
2019-04-01T04:45:06.057Z,82.41
2019-04-01T04:47:39.801Z,82.00
2019-04-01T04:50:13.648Z,82.02
2019-04-01T04:52:47.677Z,82.32
2019-04-01T04:55:21.401Z,82.05
2019-04-01T04:57:55.191Z,81.87
2019-04-01T05:00:29.164Z,82.30
2019-04-01T05:03:02.901Z,82.34
2019-04-01T05:05:36.908Z,82.37
2019-04-01T05:08:10.909Z,82.35
2019-04-01T05:10:44.901Z,82.04
2019-04-01T05:13:18.624Z,82.13
2019-04-01T05:15:52.320Z,81.93
2019-04-01T05:18:26.034Z,82.15
2019-04-01T05:21:01.045Z,82.48
2019-04-01T05:23:35.017Z,82.51
2019-04-01T05:26:09.705Z,82.62
2019-04-01T05:28:45.499Z,82.63
2019-04-01T05:31:21.806Z,82.09
2019-04-01T05:33:58.412Z,82.58
2019-04-01T05:36:32.759Z,82.33
2019-04-01T05:39:07.399Z,81.98
2019-04-01T05:41:41.455Z,82.05
2019-04-01T05:44:15.251Z,82.64
2019-04-01T05:46:49.356Z,82.86
2019-04-01T05:49:23.151Z,83.10
2019-04-01T05:51:56.996Z,82.92
2019-04-01T05:54:30.718Z,82.74
2019-04-01T05:57:05.384Z,82.63
2019-04-01T05:59:39.237Z,83.17
2019-04-01T06:02:13.007Z,82.80
2019-04-01T06:04:47.100Z,82.37
2019-04-01T06:07:20.880Z,82.75
2019-04-01T06:09:54.742Z,81.79
2019-04-01T06:12:29.276Z,81.90
2019-04-01T06:15:03.675Z,81.80
2019-04-01T06:17:37.696Z,81.45
2019-04-01T06:20:11.593Z,81.60
2019-04-01T06:22:45.650Z,80.96
2019-04-01T06:25:19.372Z,80.43
2019-04-01T06:27:53.145Z,80.74
2019-04-01T06:30:26.888Z,80.17
2019-04-01T06:33:00.839Z,79.79
2019-04-01T06:35:34.730Z,80.05
2019-04-01T06:38:08.533Z,79.28
2019-04-01T06:40:42.328Z,79.56
2019-04-01T06:43:16.276Z,79.17
2019-04-01T06:45:50.315Z,78.53
2019-04-01T06:48:24.086Z,78.06
2019-04-01T06:50:57.805Z,77.64
2019-04-01T06:53:32.105Z,77.78
2019-04-01T06:56:05.959Z,77.94
2019-04-01T06:58:40.080Z,78.24
2019-04-01T07:01:13.860Z,77.42
2019-04-01T07:03:48.461Z,76.11
2019-04-01T07:06:22.163Z,76.18
2019-04-01T07:08:55.858Z,74.33
2019-04-01T07:11:29.889Z,74.38
2019-04-01T07:14:05.049Z,74.16
2019-04-01T07:16:40.152Z,72.43
2019-04-01T07:19:14.363Z,72.83
2019-04-01T07:21:48.080Z,71.80
2019-04-01T07:24:21.921Z,72.38
2019-04-01T07:26:55.776Z,72.07
2019-04-01T07:29:29.467Z,72.17
2019-04-01T07:32:03.436Z,71.24
2019-04-01T07:34:37.194Z,70.64
2019-04-01T07:37:11.044Z,69.89
2019-04-01T07:39:44.811Z,69.83
2019-04-01T07:42:18.523Z,69.84
2019-04-01T07:44:52.617Z,68.42
2019-04-01T07:47:26.796Z,69.59
2019-04-01T07:50:00.488Z,67.31
2019-04-01T07:52:34.377Z,67.00
2019-04-01T07:55:08.428Z,66.15
2019-04-01T07:57:42.219Z,66.21
2019-04-01T08:00:16.467Z,65.41
2019-04-01T08:02:50.420Z,65.08
2019-04-01T08:05:26.036Z,62.41
2019-04-01T08:07:59.688Z,62.82
2019-04-01T08:10:33.546Z,62.96
2019-04-01T08:13:07.759Z,62.28
2019-04-01T08:15:41.537Z,60.37
2019-04-01T08:18:15.584Z,61.11
2019-04-01T08:20:49.275Z,59.47
2019-04-01T08:23:23.128Z,58.48
2019-04-01T08:25:56.903Z,58.48
2019-04-01T08:28:30.631Z,56.65
2019-04-01T08:31:04.718Z,56.65
2019-04-01T08:33:38.772Z,53.72
2019-04-01T08:36:12.540Z,48.91
2019-04-01T08:38:46.261Z,47.41
2019-04-01T08:41:20.426Z,42.60
2019-04-01T08:43:54.390Z,38.91
2019-04-01T08:46:28.467Z,37.88
2019-04-01T08:49:02.468Z,36.09
2019-04-01T08:51:36.632Z,35.68
2019-04-01T08:54:10.433Z,34.70
2019-04-01T08:56:44.209Z,35.40
2019-04-01T08:59:18.003Z,35.38
2019-04-01T09:01:52.275Z,34.88
2019-04-01T09:04:26.334Z,33.81
2019-04-01T09:07:00.036Z,34.03
2019-04-01T09:09:34.508Z,33.15
2019-04-01T09:12:08.657Z,32.28
2019-04-01T09:14:43.224Z,32.52
2019-04-01T09:17:17.378Z,32.04
2019-04-01T09:19:51.199Z,30.67
2019-04-01T09:22:24.910Z,31.16
2019-04-01T09:24:58.627Z,29.78
2019-04-01T09:27:32.324Z,29.82
2019-04-01T09:30:07.156Z,30.07
2019-04-01T09:32:41.094Z,29.49
2019-04-01T09:35:14.872Z,30.61
2019-04-01T09:37:48.582Z,28.58
2019-04-01T09:40:22.375Z,29.01
2019-04-01T09:42:56.084Z,28.81
2019-04-01T09:45:29.887Z,28.38
2019-04-01T09:48:03.673Z,27.84
2019-04-01T09:50:37.400Z,28.77
2019-04-01T09:53:11.175Z,29.13
2019-04-01T09:55:45.264Z,28.29
2019-04-01T09:58:18.973Z,29.42
2019-04-01T10:00:53.404Z,28.09
2019-04-01T10:03:27.623Z,29.14
2019-04-01T10:06:01.333Z,28.19
2019-04-01T10:08:42.117Z,27.63
2019-04-01T10:11:12.630Z,28.63
2019-04-01T10:13:45.917Z,26.52
2019-04-01T10:16:19.649Z,25.23
2019-04-01T10:18:53.353Z,24.08
2019-04-01T10:21:27.372Z,24.80
2019-04-01T10:24:01.091Z,24.90
2019-04-01T10:26:34.981Z,24.18
2019-04-01T10:29:08.684Z,25.72
2019-04-01T10:31:42.481Z,25.97
2019-04-01T10:34:16.187Z,26.80
2019-04-01T10:36:50.058Z,25.31
2019-04-01T10:39:23.772Z,24.56
2019-04-01T10:41:57.821Z,24.50
2019-04-01T10:44:31.523Z,24.40
2019-04-01T10:47:05.765Z,23.56
2019-04-01T10:49:39.480Z,23.77
2019-04-01T10:52:13.294Z,24.22
2019-04-01T10:54:47.177Z,24.50
2019-04-01T10:57:20.904Z,23.20
2019-04-01T10:59:54.865Z,25.39
2019-04-01T11:02:28.755Z,24.80
2019-04-01T11:07:35.539Z,23.57
2019-04-01T11:10:11.790Z,22.40
2019-04-01T11:12:45.149Z,23.35
2019-04-01T11:15:20.385Z,22.67
2019-04-01T11:17:54.552Z,21.25
2019-04-01T11:20:28.257Z,20.53
2019-04-01T11:23:02.798Z,20.92
2019-04-01T11:25:37.123Z,20.92
2019-04-01T11:28:10.849Z,21.31
2019-04-01T11:30:44.829Z,20.97
2019-04-01T11:33:18.903Z,22.55
2019-04-01T11:35:52.593Z,22.23
2019-04-01T11:38:26.281Z,23.71
2019-04-01T11:41:00.045Z,24.28
2019-04-01T11:43:35.668Z,22.20
2019-04-01T11:46:12.580Z,22.78
2019-04-01T11:48:45.684Z,21.34
2019-04-01T11:51:31.992Z,21.44
2019-04-01T11:53:55.232Z,20.53
2019-04-01T11:56:29.006Z,21.88
2019-04-01T11:59:02.802Z,22.23
2019-04-01T12:01:36.932Z,21.67
2019-04-01T12:04:10.970Z,20.90
2019-04-01T12:06:44.693Z,20.54
2019-04-01T12:09:18.405Z,21.34
2019-04-01T12:11:52.119Z,20.75
2019-04-01T12:14:25.891Z,21.62
2019-04-01T12:16:59.608Z,21.35
2019-04-01T12:19:33.396Z,22.08
2019-04-01T12:22:07.178Z,21.35
2019-04-01T12:24:41.290Z,20.86
2019-04-01T12:27:15.536Z,20.33
2019-04-01T12:29:51.395Z,21.47
2019-04-01T12:32:25.182Z,24.62
2019-04-01T12:34:58.917Z,22.38
2019-04-01T12:37:32.620Z,20.13
2019-04-01T12:40:06.922Z,20.61
2019-04-01T12:42:40.914Z,19.42
2019-04-01T12:45:14.780Z,18.83
2019-04-01T12:47:48.552Z,19.87
2019-04-01T12:50:22.476Z,20.36
2019-04-01T12:52:56.248Z,19.60
2019-04-01T12:55:30.096Z,19.69
2019-04-01T12:58:03.888Z,21.55
2019-04-01T13:00:37.712Z,21.33
2019-04-01T13:03:11.946Z,21.24
2019-04-01T13:05:45.795Z,20.71
2019-04-01T13:08:19.873Z,21.81
2019-04-01T13:10:56.483Z,21.39
2019-04-01T13:13:29.309Z,20.17
2019-04-01T13:16:03.539Z,20.30
2019-04-01T13:18:38.305Z,20.72
2019-04-01T13:21:12.243Z,20.27
2019-04-01T13:23:46.008Z,21.14
2019-04-01T13:26:19.981Z,21.46
2019-04-01T13:28:55.016Z,21.31
2019-04-01T13:31:29.015Z,21.82
2019-04-01T13:34:02.778Z,21.45
2019-04-01T13:36:36.856Z,21.07
2019-04-01T13:39:10.805Z,19.71
2019-04-01T13:41:45.500Z,20.41
2019-04-01T13:44:19.544Z,18.67
2019-04-01T13:46:55.949Z,18.79
2019-04-01T13:49:29.258Z,20.15
2019-04-01T13:52:03.746Z,19.88
2019-04-01T13:54:37.695Z,21.48
2019-04-01T13:57:13.071Z,22.83
2019-04-01T13:59:49.417Z,20.21
2019-04-01T14:02:22.891Z,20.27
2019-04-01T14:04:56.990Z,21.28
2019-04-01T14:07:30.677Z,22.79
2019-04-01T14:10:05.212Z,22.46
2019-04-01T14:12:39.272Z,22.19
2019-04-01T14:15:13.318Z,23.45
2019-04-01T14:17:47.036Z,23.54
2019-04-01T14:20:20.724Z,24.23
2019-04-01T14:22:54.452Z,24.85
2019-04-01T14:25:28.148Z,23.52
2019-04-01T14:28:02.425Z,23.09
2019-04-01T14:30:36.667Z,23.71
2019-04-01T14:33:10.387Z,23.32
2019-04-01T14:35:45.303Z,23.51
2019-04-01T14:38:19.047Z,22.97
2019-04-01T14:40:52.753Z,21.74
2019-04-01T14:43:26.622Z,20.98
2019-04-01T14:46:00.626Z,21.29
2019-04-01T14:48:34.598Z,20.85
2019-04-01T14:51:08.444Z,22.21
2019-04-01T14:53:42.222Z,22.29
2019-04-01T14:56:16.030Z,21.96
2019-04-01T14:58:50.115Z,21.73
2019-04-01T15:01:23.992Z,22.14
2019-04-01T15:03:57.896Z,22.90
2019-04-01T15:06:31.773Z,21.16
2019-04-01T15:09:08.573Z,23.51
2019-04-01T15:11:42.843Z,22.62
2019-04-01T15:14:16.678Z,22.33
2019-04-01T15:16:50.456Z,23.07
2019-04-01T15:19:24.263Z,23.30
2019-04-01T15:21:58.385Z,24.44
2019-04-01T15:24:32.151Z,26.05
2019-04-01T15:27:05.988Z,28.05
2019-04-01T15:29:39.867Z,28.82
2019-04-01T15:32:13.735Z,30.64
2019-04-01T15:34:47.539Z,30.12
2019-04-01T15:37:21.307Z,31.77
2019-04-01T15:39:55.112Z,31.82
2019-04-01T15:42:28.935Z,33.08
2019-04-01T15:45:02.829Z,32.46
2019-04-01T15:47:38.299Z,32.28
2019-04-01T15:50:27.375Z,33.36
2019-04-01T15:52:47.948Z,32.64
2019-04-01T15:55:21.701Z,32.84
2019-04-01T15:57:55.503Z,33.21
2019-04-01T16:00:29.290Z,33.49
2019-04-01T16:03:03.106Z,33.54
2019-04-01T16:05:36.862Z,34.68
2019-04-01T16:08:10.763Z,33.77
2019-04-01T16:10:44.657Z,35.14
2019-04-01T16:13:18.542Z,33.98
2019-04-01T16:15:52.321Z,33.91
2019-04-01T16:18:26.058Z,34.79
2019-04-01T16:21:00.011Z,35.01
2019-04-01T16:23:33.993Z,34.31
2019-04-01T16:26:09.520Z,34.44
2019-04-01T16:28:43.457Z,35.32
2019-04-01T16:31:17.255Z,34.90
2019-04-01T16:33:51.407Z,36.76
2019-04-01T16:36:25.134Z,37.59
2019-04-01T16:38:59.420Z,38.12
2019-04-01T16:41:33.225Z,39.68
2019-04-01T16:44:07.209Z,42.23
2019-04-01T16:46:41.533Z,41.03
2019-04-01T16:49:15.740Z,42.02
2019-04-01T16:51:50.477Z,46.47
2019-04-01T16:54:24.294Z,42.12
2019-04-01T16:56:58.067Z,42.43
2019-04-01T16:59:31.906Z,40.93
2019-04-01T17:02:17.236Z,38.96
2019-04-01T17:04:41.521Z,41.58
2019-04-01T17:07:15.447Z,45.67
2019-04-01T17:09:49.443Z,43.89
2019-04-01T17:12:23.363Z,46.67
2019-04-01T17:14:57.383Z,46.58
2019-04-01T17:17:31.261Z,45.97
2019-04-01T17:20:05.493Z,49.60
2019-04-01T17:22:39.384Z,44.87
2019-04-01T17:25:13.375Z,45.02
2019-04-01T17:27:47.318Z,48.50
2019-04-01T17:30:21.571Z,49.62
2019-04-01T17:32:55.427Z,48.56
2019-04-01T17:35:29.377Z,46.27
2019-04-01T17:38:03.663Z,47.55
2019-04-01T17:40:37.410Z,49.02
2019-04-01T17:43:13.488Z,47.75
2019-04-01T17:45:46.918Z,48.04
2019-04-01T17:48:20.674Z,49.59
2019-04-01T17:50:54.453Z,47.50
2019-04-01T17:53:28.236Z,47.65
2019-04-01T17:56:02.147Z,47.56
2019-04-01T17:58:36.035Z,48.61
2019-04-01T18:01:10.537Z,48.37
2019-04-01T18:03:45.058Z,48.54
2019-04-01T18:06:18.911Z,50.37
2019-04-01T18:08:52.725Z,50.45
2019-04-01T18:11:26.461Z,51.92
2019-04-01T18:14:02.757Z,51.70
2019-04-01T18:16:35.755Z,52.12
2019-04-01T18:19:09.905Z,53.30
2019-04-01T18:21:43.677Z,52.56
2019-04-01T18:24:17.427Z,53.77
2019-04-01T18:26:51.198Z,54.06
2019-04-01T18:29:24.980Z,54.48
2019-04-01T18:31:59.106Z,54.20
2019-04-01T18:34:32.980Z,55.15
2019-04-01T18:37:06.688Z,55.69
2019-04-01T18:39:47.975Z,55.80
2019-04-01T18:42:15.790Z,56.23
2019-04-01T18:44:49.841Z,55.15
2019-04-01T18:47:23.567Z,56.62
2019-04-01T18:49:57.285Z,56.62
2019-04-01T18:52:30.991Z,57.04
2019-04-01T18:55:07.660Z,58.17
2019-04-01T18:57:40.519Z,58.46
2019-04-01T19:00:14.887Z,58.46
2019-04-01T19:02:48.775Z,58.57
2019-04-01T19:05:22.868Z,59.03
2019-04-01T19:07:56.571Z,59.61
2019-04-01T19:10:30.293Z,59.82
2019-04-01T19:13:06.602Z,59.82
2019-04-01T19:15:41.997Z,58.45
2019-04-01T19:18:15.790Z,59.16
2019-04-01T19:20:56.119Z,60.42
2019-04-01T19:23:24.972Z,60.72
2019-04-01T19:25:58.683Z,60.72
2019-04-01T19:28:32.393Z,60.57
2019-04-01T19:31:06.190Z,59.74
2019-04-01T19:33:39.962Z,59.74
2019-04-01T19:36:13.956Z,60.34
2019-04-01T19:38:47.657Z,61.22
2019-04-01T19:41:21.359Z,61.22
2019-04-01T19:43:55.061Z,59.90
2019-04-01T19:46:28.767Z,61.42
2019-04-01T19:49:05.032Z,61.42
2019-04-01T19:51:38.232Z,61.24
2019-04-01T19:54:11.923Z,62.02
2019-04-01T19:56:45.937Z,62.74
2019-04-01T19:59:19.630Z,62.33
2019-04-01T20:01:53.366Z,61.37
2019-04-01T20:04:27.385Z,62.76
2019-04-01T20:07:01.081Z,62.51
2019-04-01T20:09:34.850Z,63.11
2019-04-01T20:12:08.639Z,63.68
2019-04-01T20:14:42.337Z,62.67
2019-04-01T20:17:16.135Z,63.39
2019-04-01T20:19:50.002Z,63.39
2019-04-01T20:22:24.002Z,63.76
2019-04-01T20:24:57.697Z,63.73
2019-04-01T20:27:31.711Z,63.87
2019-04-01T20:30:09.096Z,64.21
2019-04-01T20:32:42.900Z,64.30
2019-04-01T20:35:23.373Z,64.58
2019-04-01T20:37:52.228Z,64.52
2019-04-01T20:40:25.927Z,64.77
2019-04-01T20:42:59.639Z,64.27
2019-04-01T20:45:33.412Z,64.74
2019-04-01T20:48:07.118Z,64.82
2019-04-01T20:50:40.811Z,64.97
2019-04-01T20:53:14.536Z,64.90
2019-04-01T20:55:50.452Z,65.19
2019-04-01T20:58:23.743Z,64.47
2019-04-01T21:00:57.444Z,65.19
2019-04-01T21:03:31.156Z,64.94
2019-04-01T21:06:05.187Z,65.31
2019-04-01T21:08:38.907Z,65.86
2019-04-01T21:11:12.875Z,65.54
2019-04-01T21:13:46.903Z,65.96
2019-04-01T21:16:20.609Z,66.25
2019-04-01T21:18:54.319Z,66.21
2019-04-01T21:21:28.040Z,65.81
2019-04-01T21:24:01.765Z,66.43
2019-04-01T21:26:35.532Z,66.53
2019-04-01T21:29:09.234Z,66.78
2019-04-01T21:31:43.288Z,66.76
2019-04-01T21:34:17.011Z,66.49
2019-04-01T21:36:50.722Z,66.56
2019-04-01T21:39:24.444Z,67.47
2019-04-01T21:41:58.145Z,66.94
2019-04-01T21:44:31.850Z,66.83
2019-04-01T21:47:05.689Z,67.07
2019-04-01T21:49:39.408Z,66.69
2019-04-01T21:52:13.119Z,66.54
2019-04-01T21:54:46.833Z,66.56
2019-04-01T21:57:20.712Z,66.95
2019-04-01T21:59:55.485Z,67.01
2019-04-01T22:02:35.863Z,66.52
2019-04-01T22:05:05.415Z,66.59
2019-04-01T22:07:39.125Z,66.55
2019-04-01T22:10:13.180Z,66.26
2019-04-01T22:12:46.889Z,66.79
2019-04-01T22:15:21.138Z,67.01
2019-04-01T22:17:56.875Z,67.36
2019-04-01T22:20:30.837Z,67.01
2019-04-01T22:23:05.227Z,67.46
2019-04-01T22:25:39.919Z,66.67
2019-04-01T22:28:13.613Z,67.19
2019-04-01T22:30:47.326Z,66.98
2019-04-01T22:33:21.021Z,66.53
2019-04-01T22:35:54.812Z,66.81
2019-04-01T22:38:28.497Z,67.22
2019-04-01T22:41:02.208Z,67.59
2019-04-01T22:43:35.909Z,67.15
2019-04-01T22:46:09.620Z,67.47
2019-04-01T22:48:43.606Z,67.72
2019-04-01T22:51:17.379Z,67.62
2019-04-01T22:53:51.071Z,67.77
2019-04-01T22:56:24.791Z,67.98
2019-04-01T22:58:58.488Z,66.62
2019-04-01T23:01:32.238Z,67.96
2019-04-01T23:04:05.939Z,67.87
2019-04-01T23:06:39.962Z,68.23
2019-04-01T23:09:13.659Z,68.27
2019-04-01T23:11:47.376Z,68.17
2019-04-01T23:14:21.073Z,68.13
2019-04-01T23:16:54.786Z,68.52
2019-04-01T23:19:28.506Z,68.90
2019-04-01T23:22:02.220Z,68.47
2019-04-01T23:24:36.135Z,68.49
2019-04-01T23:27:09.848Z,68.49
2019-04-01T23:29:43.529Z,69.43
2019-04-01T23:32:17.241Z,69.27
2019-04-01T23:34:51.211Z,69.68
2019-04-01T23:37:24.919Z,69.34
2019-04-01T23:39:58.688Z,69.47
2019-04-01T23:42:32.401Z,69.46
2019-04-01T23:45:07.003Z,69.34
2019-04-01T23:47:40.784Z,69.57
2019-04-01T23:50:14.552Z,69.71
2019-04-01T23:52:48.269Z,69.67
2019-04-01T23:55:22.443Z,69.80
2019-04-01T23:57:56.152Z,69.74
